createdAt,value
2018-01-29T05:00:46.095Z,0
2018-01-29T05:01:11.581Z,0
2018-01-29T05:01:37.085Z,0
2018-01-29T05:02:02.574Z,0
2018-01-29T05:02:28.080Z,0
2018-01-29T05:02:53.571Z,0
2018-01-29T05:03:19.115Z,0
2018-01-29T05:03:44.660Z,0
2018-01-29T05:04:10.189Z,0
2018-01-29T05:04:35.661Z,0
2018-01-29T05:05:01.206Z,0
2018-01-29T05:05:26.661Z,0
2018-01-29T05:05:52.147Z,0
2018-01-29T05:06:17.651Z,0
2018-01-29T05:06:43.155Z,0
2018-01-29T05:07:08.661Z,0
2018-01-29T05:07:34.174Z,0
2018-01-29T05:07:59.653Z,0
2018-01-29T05:08:25.151Z,0
2018-01-29T05:08:50.651Z,0
2018-01-29T05:09:16.137Z,0
2018-01-29T05:09:41.637Z,0
2018-01-29T05:10:07.134Z,0
2018-01-29T05:10:32.609Z,0
2018-01-29T05:10:58.127Z,0
2018-01-29T05:11:23.612Z,0
2018-01-29T05:11:49.086Z,0
2018-01-29T05:12:14.591Z,0
2018-01-29T05:12:40.071Z,0
2018-01-29T05:13:05.542Z,0
2018-01-29T05:13:31.092Z,0
2018-01-29T05:13:56.546Z,0
2018-01-29T05:14:22.049Z,0
2018-01-29T05:14:47.571Z,0
2018-01-29T05:15:13.067Z,0
2018-01-29T05:15:38.552Z,0
2018-01-29T05:16:57.469Z,0
2018-01-29T05:17:22.979Z,0
2018-01-29T05:17:48.480Z,0
2018-01-29T05:18:13.996Z,0
2018-01-29T05:18:39.531Z,0
2018-01-29T05:19:05.017Z,0
2018-01-29T05:19:30.504Z,0
2018-01-29T05:19:55.979Z,0
2018-01-29T05:20:21.453Z,0
2018-01-29T05:20:47.074Z,0
2018-01-29T05:21:12.567Z,0
2018-01-29T05:21:38.062Z,0
2018-01-29T05:22:03.601Z,0
2018-01-29T05:22:29.192Z,0
2018-01-29T05:22:54.697Z,0
2018-01-29T05:23:20.202Z,0
2018-01-29T05:23:45.655Z,0
2018-01-29T05:24:11.313Z,0
2018-01-29T05:24:36.758Z,0
2018-01-29T05:25:02.318Z,0
2018-01-29T05:25:27.741Z,0
2018-01-29T05:25:53.223Z,0
2018-01-29T05:27:07.784Z,0
2018-01-29T05:27:33.265Z,0
2018-01-29T05:27:58.739Z,0
2018-01-29T05:28:24.203Z,0
2018-01-29T05:28:49.658Z,0
2018-01-29T05:29:15.220Z,0
2018-01-29T05:29:40.581Z,0
2018-01-29T05:30:06.035Z,0
2018-01-29T05:30:31.533Z,0
2018-01-29T05:30:57.010Z,0
2018-01-29T05:31:22.510Z,0
2018-01-29T05:31:48.015Z,0
2018-01-29T05:32:13.502Z,0
2018-01-29T05:32:38.957Z,0
2018-01-29T05:33:04.412Z,0
2018-01-29T05:33:29.879Z,0
2018-01-29T05:33:55.334Z,0
2018-01-29T05:34:20.808Z,0
2018-01-29T05:34:46.286Z,0
2018-01-29T05:35:11.753Z,0
2018-01-29T05:35:37.218Z,0
2018-01-29T05:36:02.695Z,0
2018-01-29T05:36:28.300Z,0
2018-01-29T05:36:53.748Z,0
2018-01-29T05:37:19.227Z,0
2018-01-29T05:37:44.729Z,0
2018-01-29T05:38:53.423Z,0
2018-01-29T05:39:18.943Z,0
2018-01-29T05:39:44.416Z,0
2018-01-29T05:40:09.951Z,0
2018-01-29T05:40:35.440Z,0
2018-01-29T05:41:01.007Z,0
2018-01-29T05:41:26.495Z,0
2018-01-29T05:42:30.073Z,0
2018-01-29T05:42:55.569Z,0
2018-01-29T05:43:21.098Z,0
2018-01-29T05:43:46.603Z,0
2018-01-29T05:44:12.119Z,0
2018-01-29T05:44:37.633Z,0
2018-01-29T05:45:03.126Z,0
2018-01-29T05:45:28.642Z,0
2018-01-29T05:45:54.174Z,0
2018-01-29T05:46:19.742Z,0
2018-01-29T05:46:45.256Z,0
2018-01-29T05:47:10.853Z,0
2018-01-29T05:47:36.310Z,0
2018-01-29T05:48:01.836Z,0
2018-01-29T05:48:27.399Z,0
2018-01-29T05:48:52.877Z,0
2018-01-29T05:49:18.372Z,0
2018-01-29T05:49:43.844Z,0
2018-01-29T05:50:09.337Z,0
2018-01-29T05:50:35.048Z,0
2018-01-29T05:51:00.546Z,0
2018-01-29T05:51:26.019Z,0
2018-01-29T05:51:51.598Z,0
2018-01-29T05:52:17.007Z,0
2018-01-29T05:52:42.537Z,0
2018-01-29T05:53:08.031Z,0
2018-01-29T05:53:33.533Z,0
2018-01-29T05:53:59.009Z,0
2018-01-29T05:54:24.539Z,0
2018-01-29T05:54:50.034Z,0
2018-01-29T05:55:15.508Z,0
2018-01-29T05:55:41.050Z,0
2018-01-29T05:56:06.517Z,0
2018-01-29T05:56:31.995Z,0
2018-01-29T05:56:57.590Z,0
2018-01-29T05:57:23.058Z,0
2018-01-29T05:57:48.548Z,0
2018-01-29T05:58:14.044Z,0
2018-01-29T05:58:39.507Z,0
2018-01-29T05:59:04.999Z,0
2018-01-29T05:59:30.526Z,0
2018-01-29T05:59:55.998Z,0
2018-01-29T06:00:21.473Z,0
2018-01-29T06:00:46.972Z,0
2018-01-29T06:01:12.499Z,0
2018-01-29T06:01:37.931Z,0
2018-01-29T06:02:03.543Z,0
2018-01-29T06:02:29.051Z,0
2018-01-29T06:02:54.559Z,0
2018-01-29T06:03:20.011Z,0
2018-01-29T06:03:45.485Z,0
2018-01-29T06:04:10.980Z,0
2018-01-29T06:04:36.485Z,0
2018-01-29T06:05:01.983Z,0
2018-01-29T06:05:27.479Z,0
2018-01-29T06:05:52.990Z,0
2018-01-29T06:06:18.507Z,0
2018-01-29T06:06:43.965Z,0
2018-01-29T06:07:09.505Z,0
2018-01-29T06:07:35.009Z,0
2018-01-29T06:08:54.011Z,0
2018-01-29T06:10:12.993Z,0
2018-01-29T06:10:38.482Z,0
2018-01-29T06:11:03.960Z,0
2018-01-29T06:11:29.442Z,0
2018-01-29T06:11:54.951Z,0
2018-01-29T06:12:20.423Z,0
2018-01-29T06:12:45.937Z,0
2018-01-29T06:13:11.411Z,0
2018-01-29T06:13:36.915Z,0
2018-01-29T06:14:02.396Z,0
2018-01-29T06:14:27.906Z,0
2018-01-29T06:14:53.385Z,0
2018-01-29T06:15:18.974Z,0
2018-01-29T06:15:44.367Z,0
2018-01-29T06:16:09.846Z,0
2018-01-29T06:16:35.388Z,0
2018-01-29T06:17:01.003Z,0
2018-01-29T06:17:26.417Z,0
2018-01-29T06:17:52.047Z,0
2018-01-29T06:18:17.862Z,0
2018-01-29T06:18:43.363Z,0
2018-01-29T06:20:02.618Z,0
2018-01-29T06:20:27.995Z,0
2018-01-29T06:20:53.485Z,0
2018-01-29T06:21:18.944Z,0
2018-01-29T06:21:44.717Z,0
2018-01-29T06:22:10.187Z,0
2018-01-29T06:22:35.811Z,0
2018-01-29T06:23:01.613Z,0
2018-01-29T06:23:27.221Z,0
2018-01-29T06:23:52.646Z,0
2018-01-29T06:24:18.141Z,0
2018-01-29T06:24:43.654Z,0
2018-01-29T06:25:09.136Z,0
2018-01-29T06:26:22.892Z,0
2018-01-29T06:26:48.478Z,0
2018-01-29T06:27:13.980Z,0
2018-01-29T06:27:39.487Z,0
2018-01-29T06:28:05.208Z,0
2018-01-29T06:28:30.646Z,0
2018-01-29T06:28:56.159Z,0
2018-01-29T06:29:21.645Z,0
2018-01-29T06:29:47.173Z,0
2018-01-29T06:30:12.692Z,0
2018-01-29T06:31:31.671Z,0
2018-01-29T06:31:57.146Z,0
2018-01-29T06:32:22.886Z,0
2018-01-29T06:32:48.406Z,0
2018-01-29T06:33:13.937Z,0
2018-01-29T06:33:39.396Z,0
2018-01-29T06:34:04.924Z,0
2018-01-29T06:34:30.397Z,0
2018-01-29T06:34:55.929Z,0
2018-01-29T06:35:21.437Z,0
2018-01-29T06:35:46.890Z,0
2018-01-29T06:36:12.387Z,0
2018-01-29T06:36:37.879Z,0
2018-01-29T06:37:03.344Z,0
2018-01-29T06:38:06.975Z,0
2018-01-29T06:38:32.470Z,0
2018-01-29T06:38:57.973Z,0
2018-01-29T06:39:23.508Z,0
2018-01-29T06:39:48.979Z,0
2018-01-29T06:40:14.493Z,0
2018-01-29T06:40:40.045Z,0
2018-01-29T06:41:05.517Z,0
2018-01-29T06:41:30.997Z,0
2018-01-29T06:41:56.553Z,0
2018-01-29T06:42:21.987Z,0
2018-01-29T06:42:47.505Z,0
2018-01-29T06:43:13.034Z,0
2018-01-29T06:43:38.514Z,0
2018-01-29T06:44:04.025Z,0
2018-01-29T06:44:29.608Z,0
2018-01-29T06:44:55.117Z,0
2018-01-29T06:45:20.621Z,0
2018-01-29T06:45:46.111Z,0
2018-01-29T06:46:11.653Z,0
2018-01-29T06:46:37.193Z,0
2018-01-29T06:47:02.681Z,4
2018-01-29T06:48:11.358Z,4
2018-01-29T06:48:36.862Z,4
2018-01-29T06:49:02.548Z,4
2018-01-29T06:49:28.027Z,4
2018-01-29T06:49:53.510Z,4
2018-01-29T06:50:18.987Z,4
2018-01-29T06:50:44.459Z,4
2018-01-29T06:51:10.054Z,4
2018-01-29T06:51:35.509Z,0
2018-01-29T06:52:00.990Z,4
2018-01-29T06:52:26.528Z,4
2018-01-29T06:52:52.002Z,4
2018-01-29T06:53:17.492Z,0
2018-01-29T06:53:43.022Z,0
2018-01-29T06:54:08.502Z,4
2018-01-29T06:54:34.025Z,4
2018-01-29T06:55:42.296Z,8
2018-01-29T06:56:07.802Z,8
2018-01-29T06:56:33.263Z,4
2018-01-29T06:56:58.754Z,4
2018-01-29T06:57:24.249Z,4
2018-01-29T06:57:49.747Z,8
2018-01-29T06:58:15.245Z,8
2018-01-29T06:58:40.741Z,8
2018-01-29T06:59:06.199Z,8
2018-01-29T06:59:31.741Z,4
2018-01-29T06:59:57.226Z,8
2018-01-29T07:00:22.726Z,8
2018-01-29T07:00:48.187Z,12
2018-01-29T07:01:13.696Z,12
2018-01-29T07:02:32.643Z,8
2018-01-29T07:02:58.149Z,8
2018-01-29T07:03:23.590Z,12
2018-01-29T07:03:49.112Z,8
2018-01-29T07:04:14.617Z,12
2018-01-29T07:04:40.126Z,12
2018-01-29T07:05:05.638Z,8
2018-01-29T07:05:31.169Z,12
2018-01-29T07:05:56.695Z,12
2018-01-29T07:06:22.166Z,12
2018-01-29T07:06:47.656Z,16
2018-01-29T07:07:13.195Z,12
2018-01-29T07:07:38.662Z,12
2018-01-29T07:08:41.809Z,16
2018-01-29T07:09:07.314Z,12
2018-01-29T07:09:32.830Z,16
2018-01-29T07:09:58.280Z,16
2018-01-29T07:10:23.897Z,20
2018-01-29T07:10:49.506Z,20
2018-01-29T07:11:14.993Z,24
2018-01-29T07:11:40.495Z,20
2018-01-29T07:12:06.000Z,20
2018-01-29T07:12:31.555Z,24
2018-01-29T07:12:57.137Z,20
2018-01-29T07:13:22.616Z,24
2018-01-29T07:13:48.087Z,28
2018-01-29T07:14:13.597Z,28
2018-01-29T07:14:39.114Z,28
2018-01-29T07:15:04.592Z,28
2018-01-29T07:15:30.092Z,32
2018-01-29T07:15:55.747Z,32
2018-01-29T07:16:21.379Z,32
2018-01-29T07:16:46.881Z,32
2018-01-29T07:17:12.375Z,32
2018-01-29T07:17:37.870Z,28
2018-01-29T07:18:46.600Z,36
2018-01-29T07:19:12.080Z,40
2018-01-29T07:19:37.554Z,40
2018-01-29T07:20:03.077Z,40
2018-01-29T07:20:28.661Z,44
2018-01-29T07:20:54.175Z,40
2018-01-29T07:21:19.648Z,48
2018-01-29T07:21:45.132Z,52
2018-01-29T07:22:10.579Z,60
2018-01-29T07:22:36.096Z,64
2018-01-29T07:23:01.568Z,64
2018-01-29T07:23:27.041Z,76
2018-01-29T07:23:52.568Z,68
2018-01-29T07:24:18.097Z,68
2018-01-29T07:24:43.467Z,64
2018-01-29T07:25:08.929Z,60
2018-01-29T07:26:17.150Z,60
2018-01-29T07:26:42.643Z,60
2018-01-29T07:27:08.138Z,72
2018-01-29T07:27:33.632Z,80
2018-01-29T07:27:59.120Z,72
2018-01-29T07:28:24.643Z,68
2018-01-29T07:28:50.139Z,68
2018-01-29T07:29:15.623Z,68
2018-01-29T07:29:41.093Z,72
2018-01-29T07:30:06.617Z,72
2018-01-29T07:30:32.131Z,68
2018-01-29T07:30:57.626Z,68
2018-01-29T07:31:23.088Z,64
2018-01-29T07:31:48.634Z,68
2018-01-29T07:32:14.165Z,64
2018-01-29T07:32:39.648Z,68
2018-01-29T07:33:05.149Z,72
2018-01-29T07:33:30.695Z,84
2018-01-29T07:33:56.203Z,88
2018-01-29T07:34:21.671Z,80
2018-01-29T07:34:47.118Z,76
2018-01-29T07:35:12.640Z,76
2018-01-29T07:36:21.400Z,80
2018-01-29T07:36:46.869Z,72
2018-01-29T07:37:12.348Z,68
2018-01-29T07:38:15.470Z,76
2018-01-29T07:38:40.968Z,80
2018-01-29T07:39:06.467Z,76
2018-01-29T07:39:31.961Z,76
2018-01-29T07:39:57.487Z,76
2018-01-29T07:40:22.966Z,76
2018-01-29T07:40:48.466Z,72
2018-01-29T07:41:13.980Z,84
2018-01-29T07:41:39.461Z,88
2018-01-29T07:42:04.967Z,84
2018-01-29T07:42:30.444Z,88
2018-01-29T07:42:55.965Z,84
2018-01-29T07:43:21.453Z,80
2018-01-29T07:43:46.962Z,80
2018-01-29T07:44:12.439Z,80
2018-01-29T07:44:37.951Z,84
2018-01-29T07:45:03.546Z,88
2018-01-29T07:45:29.084Z,104
2018-01-29T07:45:54.584Z,120
2018-01-29T07:46:20.059Z,112
2018-01-29T07:46:45.545Z,96
2018-01-29T07:47:11.053Z,92
2018-01-29T07:47:36.599Z,96
2018-01-29T07:48:02.084Z,132
2018-01-29T07:48:27.618Z,204
2018-01-29T07:48:53.136Z,284
2018-01-29T07:49:18.629Z,324
2018-01-29T07:49:44.139Z,372
2018-01-29T07:50:09.629Z,476
2018-01-29T07:50:35.130Z,536
2018-01-29T07:51:00.656Z,572
2018-01-29T07:51:26.119Z,624
2018-01-29T07:51:51.619Z,656
2018-01-29T07:52:17.104Z,600
2018-01-29T07:52:42.599Z,536
2018-01-29T07:53:08.091Z,492
2018-01-29T07:53:33.563Z,452
2018-01-29T07:53:59.065Z,408
2018-01-29T07:54:24.613Z,388
2018-01-29T07:54:50.105Z,416
2018-01-29T07:55:15.600Z,440
2018-01-29T07:55:41.122Z,388
2018-01-29T07:56:06.591Z,332
2018-01-29T07:56:32.138Z,288
2018-01-29T07:56:57.663Z,252
2018-01-29T07:57:23.206Z,212
2018-01-29T07:57:48.671Z,192
2018-01-29T07:58:14.153Z,204
2018-01-29T07:58:39.653Z,232
2018-01-29T07:59:05.136Z,252
2018-01-29T07:59:30.644Z,292
2018-01-29T07:59:56.174Z,304
2018-01-29T08:00:21.666Z,284
2018-01-29T08:00:47.184Z,268
2018-01-29T08:01:12.644Z,232
2018-01-29T08:01:38.159Z,180
2018-01-29T08:02:03.649Z,164
2018-01-29T08:02:29.255Z,196
2018-01-29T08:02:54.785Z,192
2018-01-29T08:03:20.220Z,180
2018-01-29T08:03:45.742Z,160
2018-01-29T08:04:11.227Z,144
2018-01-29T08:04:36.701Z,132
2018-01-29T08:05:02.211Z,136
2018-01-29T08:05:27.725Z,136
2018-01-29T08:05:53.221Z,144
2018-01-29T08:06:18.747Z,144
2018-01-29T08:06:44.265Z,136
2018-01-29T08:07:09.800Z,120
2018-01-29T08:07:35.307Z,120
2018-01-29T08:08:00.771Z,120
2018-01-29T08:08:26.260Z,128
2018-01-29T08:08:51.771Z,116
2018-01-29T08:09:17.333Z,112
2018-01-29T08:10:41.469Z,156
2018-01-29T08:11:06.962Z,208
2018-01-29T08:11:32.497Z,208
2018-01-29T08:11:57.977Z,208
2018-01-29T08:12:23.500Z,208
2018-01-29T08:12:48.994Z,220
2018-01-29T08:13:14.493Z,196
2018-01-29T08:13:40.006Z,152
2018-01-29T08:14:05.500Z,124
2018-01-29T08:14:30.987Z,124
2018-01-29T08:14:56.540Z,128
2018-01-29T08:15:22.049Z,116
2018-01-29T08:15:47.512Z,116
2018-01-29T08:16:12.993Z,148
2018-01-29T08:16:38.463Z,164
2018-01-29T08:17:03.950Z,168
2018-01-29T08:17:29.449Z,160
2018-01-29T08:17:54.896Z,148
2018-01-29T08:18:20.413Z,124
2018-01-29T08:18:45.962Z,132
2018-01-29T08:19:11.458Z,164
2018-01-29T08:19:36.974Z,236
2018-01-29T08:20:02.519Z,268
2018-01-29T08:20:28.005Z,240
2018-01-29T08:20:53.526Z,224
2018-01-29T08:21:18.994Z,232
2018-01-29T08:21:44.512Z,212
2018-01-29T08:22:10.031Z,192
2018-01-29T08:22:35.550Z,172
2018-01-29T08:23:01.027Z,168
2018-01-29T08:23:26.526Z,192
2018-01-29T08:23:52.010Z,240
2018-01-29T08:24:17.507Z,272
2018-01-29T08:24:43.109Z,288
2018-01-29T08:25:08.597Z,332
2018-01-29T08:25:34.099Z,324
2018-01-29T08:25:59.610Z,292
2018-01-29T08:26:25.059Z,288
2018-01-29T08:26:50.537Z,316
2018-01-29T08:27:16.024Z,312
2018-01-29T08:27:41.543Z,356
2018-01-29T08:28:07.015Z,332
2018-01-29T08:28:32.531Z,332
2018-01-29T08:28:58.003Z,420
2018-01-29T08:29:23.473Z,448
2018-01-29T08:30:37.267Z,480
2018-01-29T08:31:02.773Z,408
2018-01-29T08:31:28.278Z,476
2018-01-29T08:31:53.762Z,548
2018-01-29T08:32:19.257Z,512
2018-01-29T08:32:44.758Z,528
2018-01-29T08:33:10.375Z,484
2018-01-29T08:33:35.816Z,460
2018-01-29T08:34:01.356Z,572
2018-01-29T08:34:26.867Z,600
2018-01-29T08:34:52.361Z,584
2018-01-29T08:35:17.865Z,656
2018-01-29T08:35:43.395Z,680
2018-01-29T08:36:08.907Z,624
2018-01-29T08:36:34.410Z,576
2018-01-29T08:36:59.924Z,508
2018-01-29T08:37:25.448Z,528
2018-01-29T08:37:50.964Z,604
2018-01-29T08:38:16.494Z,592
2018-01-29T08:38:41.985Z,608
2018-01-29T08:39:07.515Z,728
2018-01-29T08:39:32.994Z,708
2018-01-29T08:39:58.503Z,688
2018-01-29T08:40:23.981Z,680
2018-01-29T08:40:49.496Z,676
2018-01-29T08:41:15.068Z,716
2018-01-29T08:41:40.569Z,740
2018-01-29T08:42:06.117Z,772
2018-01-29T08:42:31.602Z,804
2018-01-29T08:42:57.166Z,808
2018-01-29T08:43:22.664Z,872
2018-01-29T08:43:48.220Z,884
2018-01-29T08:44:13.672Z,836
2018-01-29T08:44:39.205Z,824
2018-01-29T08:45:04.708Z,744
2018-01-29T08:46:28.875Z,520
2018-01-29T08:46:54.746Z,536
2018-01-29T08:48:13.686Z,800
2018-01-29T08:48:39.181Z,772
2018-01-29T08:49:04.680Z,744
2018-01-29T08:49:30.163Z,780
2018-01-29T08:49:55.762Z,832
2018-01-29T08:50:21.330Z,820
2018-01-29T08:50:46.892Z,916
2018-01-29T08:51:12.516Z,1140
2018-01-29T08:51:38.019Z,1128
2018-01-29T08:52:03.532Z,996
2018-01-29T08:53:07.406Z,748
2018-01-29T08:54:11.100Z,948
2018-01-29T08:54:36.615Z,1208
2018-01-29T08:55:02.091Z,1448
2018-01-29T08:56:10.772Z,1536
2018-01-29T08:56:36.362Z,1812
2018-01-29T08:57:01.896Z,1916
2018-01-29T08:57:27.490Z,1648
2018-01-29T08:57:53.010Z,1492
2018-01-29T08:58:18.638Z,1580
2018-01-29T08:59:37.733Z,1956
2018-01-29T09:00:03.208Z,1768
2018-01-29T09:00:28.676Z,1480
2018-01-29T09:00:54.208Z,1492
2018-01-29T09:01:19.720Z,1572
2018-01-29T09:02:33.515Z,1780
2018-01-29T09:02:59.064Z,1812
2018-01-29T09:03:24.554Z,1704
2018-01-29T09:03:50.135Z,1588
2018-01-29T09:04:15.598Z,1644
2018-01-29T09:04:41.121Z,1548
2018-01-29T09:05:06.622Z,1492
2018-01-29T09:05:32.277Z,1536
2018-01-29T09:05:57.816Z,1724
2018-01-29T09:06:23.364Z,1928
2018-01-29T09:06:48.831Z,1716
2018-01-29T09:07:14.344Z,1584
2018-01-29T09:07:39.982Z,1724
2018-01-29T09:08:05.473Z,1624
2018-01-29T09:08:30.984Z,1348
2018-01-29T09:08:56.498Z,1108
2018-01-29T09:09:22.005Z,1096
2018-01-29T09:09:47.526Z,1176
2018-01-29T09:10:13.076Z,1112
2018-01-29T09:10:38.664Z,940
2018-01-29T09:11:04.138Z,792
2018-01-29T09:11:29.774Z,808
2018-01-29T09:11:55.251Z,904
2018-01-29T09:12:20.746Z,1016
2018-01-29T09:12:46.373Z,944
2018-01-29T09:13:11.854Z,872
2018-01-29T09:13:37.343Z,812
2018-01-29T09:14:02.849Z,940
2018-01-29T09:14:28.380Z,988
2018-01-29T09:14:53.903Z,916
2018-01-29T09:15:19.386Z,1032
2018-01-29T09:15:44.902Z,1160
2018-01-29T09:16:10.414Z,1092
2018-01-29T09:16:35.898Z,964
2018-01-29T09:17:59.616Z,1268
2018-01-29T09:18:25.101Z,1324
2018-01-29T09:18:50.599Z,1048
2018-01-29T09:19:16.186Z,940
2018-01-29T09:19:41.688Z,1024
2018-01-29T09:20:07.175Z,1288
2018-01-29T09:20:32.681Z,1264
2018-01-29T09:20:58.192Z,1168
2018-01-29T09:21:23.686Z,1116
2018-01-29T09:21:49.176Z,1080
2018-01-29T09:22:14.684Z,1044
2018-01-29T09:23:18.298Z,820
2018-01-29T09:23:43.804Z,1032
2018-01-29T09:24:09.298Z,1284
2018-01-29T09:24:34.783Z,1248
2018-01-29T09:25:00.266Z,992
2018-01-29T09:25:25.745Z,888
2018-01-29T09:25:51.263Z,828
2018-01-29T09:27:15.248Z,652
2018-01-29T09:27:40.775Z,588
2018-01-29T09:28:06.316Z,632
2018-01-29T09:28:31.810Z,816
2018-01-29T09:29:35.443Z,1452
2018-01-29T09:30:00.936Z,1388
2018-01-29T09:30:26.406Z,1240
2018-01-29T09:31:44.826Z,1388
2018-01-29T09:32:10.324Z,1336
2018-01-29T09:32:35.815Z,1244
2018-01-29T09:33:01.299Z,1064
2018-01-29T09:33:26.785Z,1028
2018-01-29T09:33:52.285Z,1012
2018-01-29T09:34:17.784Z,1004
2018-01-29T09:34:43.354Z,1076
2018-01-29T09:35:08.805Z,1172
2018-01-29T09:35:34.292Z,1192
2018-01-29T09:35:59.785Z,1144
2018-01-29T09:36:25.297Z,1252
2018-01-29T09:36:50.754Z,1212
2018-01-29T09:37:16.228Z,1108
2018-01-29T09:37:41.744Z,1012
2018-01-29T09:38:07.252Z,976
2018-01-29T09:38:32.757Z,1044
2018-01-29T09:38:58.231Z,1092
2018-01-29T09:39:23.765Z,1216
2018-01-29T09:39:49.282Z,1148
2018-01-29T09:40:14.776Z,1184
2018-01-29T09:40:40.297Z,1100
2018-01-29T09:41:05.796Z,1116
2018-01-29T09:41:31.275Z,1096
2018-01-29T09:41:56.809Z,1172
2018-01-29T09:42:22.313Z,1252
2018-01-29T09:43:41.353Z,1524
2018-01-29T09:44:06.823Z,1700
2018-01-29T09:44:32.284Z,1724
2018-01-29T09:44:57.758Z,1892
2018-01-29T09:45:23.286Z,1836
2018-01-29T09:45:48.757Z,1720
2018-01-29T09:46:14.233Z,1704
2018-01-29T09:46:39.716Z,1752
2018-01-29T09:47:48.474Z,2392
2018-01-29T09:48:13.966Z,2408
2018-01-29T09:48:39.464Z,2504
2018-01-29T09:49:04.938Z,2284
2018-01-29T09:49:30.429Z,1872
2018-01-29T09:49:55.930Z,1492
2018-01-29T09:50:21.424Z,1268
2018-01-29T09:50:46.892Z,1196
2018-01-29T09:51:12.344Z,1188
2018-01-29T09:51:37.824Z,1264
2018-01-29T09:52:41.475Z,1076
2018-01-29T09:53:06.930Z,1052
2018-01-29T09:53:32.477Z,1100
2018-01-29T09:53:57.998Z,1064
2018-01-29T09:54:23.500Z,1084
2018-01-29T09:54:49.024Z,1104
2018-01-29T09:55:14.528Z,1216
2018-01-29T09:55:40.061Z,1588
2018-01-29T09:56:05.622Z,1852
2018-01-29T09:56:31.092Z,1672
2018-01-29T09:56:56.579Z,1260
2018-01-29T09:57:22.121Z,1260
2018-01-29T09:57:47.610Z,1368
2018-01-29T09:58:13.150Z,1324
2018-01-29T09:58:38.693Z,1316
2018-01-29T09:59:04.169Z,1344
2018-01-29T09:59:29.690Z,1512
2018-01-29T10:00:38.452Z,1100
2018-01-29T10:01:03.897Z,1148
2018-01-29T10:01:29.388Z,1132
2018-01-29T10:01:54.862Z,1096
2018-01-29T10:02:20.401Z,1176
2018-01-29T10:02:45.900Z,1212
2018-01-29T10:03:11.392Z,1208
2018-01-29T10:03:36.997Z,1456
2018-01-29T10:04:02.486Z,1728
2018-01-29T10:04:27.956Z,2072
2018-01-29T10:04:53.440Z,2028
2018-01-29T10:05:18.935Z,2296
2018-01-29T10:05:44.369Z,2100
2018-01-29T10:06:09.964Z,1652
2018-01-29T10:06:35.422Z,1484
2018-01-29T10:07:00.923Z,1500
2018-01-29T10:07:26.434Z,1428
2018-01-29T10:07:51.898Z,1240
2018-01-29T10:08:17.388Z,1240
2018-01-29T10:08:42.904Z,1336
2018-01-29T10:09:08.393Z,1568
2018-01-29T10:09:33.914Z,1896
2018-01-29T10:09:59.366Z,1936
2018-01-29T10:10:24.844Z,1752
2018-01-29T10:10:50.388Z,1880
2018-01-29T10:11:15.868Z,2216
2018-01-29T10:12:24.573Z,2204
2018-01-29T10:12:50.117Z,1712
2018-01-29T10:13:15.592Z,1524
2018-01-29T10:13:41.125Z,1368
2018-01-29T10:14:06.602Z,1212
2018-01-29T10:14:32.142Z,1180
2018-01-29T10:14:57.661Z,1040
2018-01-29T10:15:23.174Z,1096
2018-01-29T10:15:48.690Z,1124
2018-01-29T10:16:14.201Z,1148
2018-01-29T10:16:39.693Z,1352
2018-01-29T10:17:05.336Z,1420
2018-01-29T10:17:30.900Z,1544
2018-01-29T10:18:44.690Z,1828
2018-01-29T10:19:10.179Z,1872
2018-01-29T10:19:35.663Z,1908
2018-01-29T10:20:01.160Z,1920
2018-01-29T10:20:26.689Z,1792
2018-01-29T10:20:52.167Z,1668
2018-01-29T10:22:11.093Z,1508
2018-01-29T10:22:36.596Z,1504
2018-01-29T10:23:02.079Z,1644
2018-01-29T10:23:27.615Z,1808
2018-01-29T10:23:53.113Z,1980
2018-01-29T10:24:18.566Z,2004
2018-01-29T10:24:44.092Z,1780
2018-01-29T10:25:09.554Z,1576
2018-01-29T10:25:35.095Z,1560
2018-01-29T10:26:00.587Z,1492
2018-01-29T10:27:24.600Z,1812
2018-01-29T10:27:50.094Z,1980
2018-01-29T10:28:15.575Z,2028
2018-01-29T10:28:41.066Z,2128
2018-01-29T10:29:06.551Z,1968
2018-01-29T10:29:32.040Z,1704
2018-01-29T10:29:57.522Z,1612
2018-01-29T10:30:23.042Z,1428
2018-01-29T10:30:48.529Z,1552
2018-01-29T10:31:14.033Z,1720
2018-01-29T10:31:39.525Z,1680
2018-01-29T10:32:05.028Z,1588
2018-01-29T10:32:30.534Z,1464
2018-01-29T10:32:56.008Z,1504
2018-01-29T10:33:21.484Z,1720
2018-01-29T10:33:46.997Z,1740
2018-01-29T10:34:12.468Z,1688
2018-01-29T10:34:37.979Z,1592
2018-01-29T10:35:03.474Z,1444
2018-01-29T10:35:28.940Z,1340
2018-01-29T10:35:54.486Z,1516
2018-01-29T10:36:20.003Z,1568
2018-01-29T10:36:45.468Z,1444
2018-01-29T10:37:10.980Z,1412
2018-01-29T10:37:36.476Z,1544
2018-01-29T10:38:02.018Z,1456
2018-01-29T10:38:27.492Z,1336
2018-01-29T10:38:52.993Z,1532
2018-01-29T10:39:18.604Z,1992
2018-01-29T10:39:44.087Z,2328
2018-01-29T10:40:09.587Z,2360
2018-01-29T10:41:13.176Z,1936
2018-01-29T10:41:38.744Z,1968
2018-01-29T10:42:04.213Z,2052
2018-01-29T10:42:29.698Z,1792
2018-01-29T10:42:55.194Z,1624
2018-01-29T10:43:20.671Z,1612
2018-01-29T10:43:46.194Z,1616
2018-01-29T10:44:54.862Z,1752
2018-01-29T10:45:20.551Z,1992
2018-01-29T10:45:46.043Z,2552
2018-01-29T10:46:11.541Z,2844
2018-01-29T10:46:37.043Z,2652
2018-01-29T10:47:02.553Z,2464
2018-01-29T10:47:28.101Z,2064
2018-01-29T10:47:54.012Z,1792
2018-01-29T10:48:57.651Z,2684
2018-01-29T10:49:23.164Z,3124
2018-01-29T10:49:48.615Z,3108
2018-01-29T10:50:14.117Z,2412
2018-01-29T10:50:39.600Z,2424
2018-01-29T10:51:05.120Z,2928
2018-01-29T10:51:30.581Z,2956
2018-01-29T10:51:56.116Z,2604
2018-01-29T10:52:21.622Z,2360
2018-01-29T10:52:47.093Z,2148
2018-01-29T10:53:12.579Z,2264
2018-01-29T10:53:38.246Z,2284
2018-01-29T10:54:03.682Z,1928
2018-01-29T10:54:29.437Z,1596
2018-01-29T10:54:54.923Z,1548
2018-01-29T10:55:20.422Z,1672
2018-01-29T10:55:45.928Z,1592
2018-01-29T10:56:54.660Z,2820
2018-01-29T10:57:20.184Z,2416
2018-01-29T10:57:45.687Z,2052
2018-01-29T10:58:11.183Z,1880
2018-01-29T10:58:36.668Z,1532
2018-01-29T10:59:02.175Z,1392
2018-01-29T10:59:27.628Z,1608
2018-01-29T10:59:53.131Z,1768
2018-01-29T11:00:18.658Z,2452
2018-01-29T11:00:44.189Z,2652
2018-01-29T11:01:09.642Z,2464
2018-01-29T11:01:35.271Z,2356
2018-01-29T11:02:00.978Z,2176
2018-01-29T11:02:26.568Z,1656
2018-01-29T11:02:52.037Z,1932
2018-01-29T11:03:17.516Z,2168
2018-01-29T11:03:43.012Z,2412
2018-01-29T11:04:08.529Z,2096
2018-01-29T11:04:34.030Z,2028
2018-01-29T11:04:59.493Z,2128
2018-01-29T11:05:25.029Z,2000
2018-01-29T11:05:50.540Z,1916
2018-01-29T11:06:16.010Z,1900
2018-01-29T11:06:41.552Z,1908
2018-01-29T11:07:07.049Z,2276
2018-01-29T11:07:32.565Z,2164
2018-01-29T11:07:58.094Z,2100
2018-01-29T11:08:23.570Z,2036
2018-01-29T11:08:49.073Z,1764
2018-01-29T11:09:14.521Z,1420
2018-01-29T11:09:40.014Z,1208
2018-01-29T11:10:05.515Z,1188
2018-01-29T11:10:31.011Z,1228
2018-01-29T11:10:56.469Z,1164
2018-01-29T11:11:21.968Z,1176
2018-01-29T11:11:47.506Z,1340
2018-01-29T11:12:12.998Z,1116
2018-01-29T11:12:38.516Z,1040
2018-01-29T11:13:04.032Z,1112
2018-01-29T11:14:17.883Z,1404
2018-01-29T11:14:43.450Z,1488
2018-01-29T11:15:08.847Z,1580
2018-01-29T11:15:34.355Z,1712
2018-01-29T11:15:59.880Z,1808
2018-01-29T11:16:25.342Z,1876
2018-01-29T11:17:29.004Z,2128
2018-01-29T11:17:54.481Z,2196
2018-01-29T11:18:19.925Z,2084
2018-01-29T11:18:45.442Z,1988
2018-01-29T11:19:10.948Z,1992
2018-01-29T11:19:36.438Z,2144
2018-01-29T11:20:02.025Z,2220
2018-01-29T11:20:27.708Z,2348
2018-01-29T11:21:41.487Z,2456
2018-01-29T11:22:07.034Z,2452
2018-01-29T11:22:32.484Z,2588
2018-01-29T11:22:58.007Z,2688
2018-01-29T11:23:23.500Z,2520
2018-01-29T11:23:49.066Z,2344
2018-01-29T11:24:14.558Z,2272
2018-01-29T11:24:40.090Z,2264
2018-01-29T11:25:05.603Z,2328
2018-01-29T11:25:31.121Z,2416
2018-01-29T11:25:56.640Z,2548
2018-01-29T11:26:22.206Z,2640
2018-01-29T11:26:47.660Z,2712
2018-01-29T11:27:13.147Z,2652
2018-01-29T11:27:38.639Z,2540
2018-01-29T11:28:04.141Z,2488
2018-01-29T11:28:29.750Z,2496
2018-01-29T11:28:56.082Z,2536
2018-01-29T11:29:21.864Z,2692
2018-01-29T11:29:47.367Z,2716
2018-01-29T11:31:02.194Z,2392
2018-01-29T11:31:27.721Z,2316
2018-01-29T11:31:53.255Z,2244
2018-01-29T11:32:18.772Z,2156
2018-01-29T11:32:44.296Z,2060
2018-01-29T11:33:09.937Z,2016
2018-01-29T11:33:35.373Z,2096